createdAt,value
2023-02-11T00:00:42.104Z,59.82
2023-02-11T00:03:09.885Z,59.76
2023-02-11T00:05:36.813Z,60.23
2023-02-11T00:08:04.079Z,59.64
2023-02-11T00:10:31.012Z,59.96
2023-02-11T00:12:58.019Z,59.34
2023-02-11T00:15:25.160Z,59.49
2023-02-11T00:17:52.165Z,59.81
2023-02-11T00:20:19.281Z,59.36
2023-02-11T00:22:46.288Z,59.53
2023-02-11T00:25:13.193Z,59.50
2023-02-11T00:27:40.401Z,60.04
2023-02-11T00:30:07.965Z,59.36
2023-02-11T00:32:34.919Z,59.76
2023-02-11T00:35:01.802Z,59.85
2023-02-11T00:37:28.774Z,60.05
2023-02-11T00:39:55.664Z,59.85
2023-02-11T00:42:22.709Z,60.03
2023-02-11T00:44:49.640Z,59.90
2023-02-11T00:47:17.258Z,60.69
2023-02-11T00:49:44.263Z,60.15
2023-02-11T00:52:11.344Z,60.15
2023-02-11T00:54:38.264Z,60.49
2023-02-11T00:57:06.654Z,59.69
2023-02-11T00:59:33.738Z,59.68
2023-02-11T01:02:01.701Z,59.92
2023-02-11T01:04:28.748Z,59.94
2023-02-11T01:06:55.765Z,59.49
2023-02-11T01:09:22.688Z,59.75
2023-02-11T01:11:49.678Z,59.39
2023-02-11T01:14:16.586Z,59.24
2023-02-11T01:16:43.575Z,60.25
2023-02-11T01:19:10.642Z,59.47
2023-02-11T01:21:37.808Z,59.18
2023-02-11T01:24:04.755Z,60.19
2023-02-11T01:26:31.727Z,59.69
2023-02-11T01:28:58.696Z,59.25
2023-02-11T01:31:28.333Z,59.30
2023-02-11T01:33:55.282Z,59.41
2023-02-11T01:36:22.342Z,59.29
2023-02-11T01:38:49.359Z,59.24
2023-02-11T01:41:16.634Z,58.63
2023-02-11T01:43:49.193Z,59.31
2023-02-11T01:46:19.304Z,58.51
2023-02-11T01:48:51.827Z,58.43
2023-02-11T01:51:27.801Z,58.84
2023-02-11T01:53:57.328Z,57.94
2023-02-11T01:56:27.377Z,58.25
2023-02-11T01:58:57.454Z,58.43
2023-02-11T02:01:26.911Z,58.28
2023-02-11T02:04:00.707Z,57.07
2023-02-11T02:06:35.729Z,57.04
2023-02-11T02:09:11.544Z,56.99
2023-02-11T02:11:38.612Z,57.28
2023-02-11T02:14:05.765Z,56.84
2023-02-11T02:16:36.876Z,56.41
2023-02-11T02:19:31.777Z,56.93
2023-02-11T02:22:46.647Z,57.01
2023-02-11T02:25:30.634Z,57.53
2023-02-11T02:28:12.775Z,58.45
2023-02-11T02:31:10.678Z,58.08
2023-02-11T02:34:03.686Z,58.62
2023-02-11T02:36:51.957Z,58.66
2023-02-11T02:39:26.512Z,59.43
2023-02-11T02:41:54.564Z,59.25
2023-02-11T02:44:21.735Z,59.54
2023-02-11T02:46:48.782Z,60.12
2023-02-11T02:49:17.051Z,59.78
2023-02-11T02:52:05.933Z,60.03
2023-02-11T02:55:03.568Z,60.01
2023-02-11T02:57:45.743Z,59.89
2023-02-11T03:00:18.632Z,59.74
2023-02-11T03:02:52.344Z,59.97
2023-02-11T03:05:41.342Z,60.46
2023-02-11T03:08:35.451Z,60.07
2023-02-11T03:11:04.813Z,59.73
2023-02-11T03:13:35.714Z,60.33
2023-02-11T03:16:13.770Z,60.51
2023-02-11T03:18:44.269Z,60.68
2023-02-11T03:21:12.456Z,60.66
2023-02-11T03:23:48.631Z,61.11
2023-02-11T03:26:23.333Z,60.64
2023-02-11T03:29:13.058Z,60.49
2023-02-11T03:32:03.833Z,60.43
2023-02-11T03:34:42.643Z,60.49
2023-02-11T03:37:28.276Z,60.54
2023-02-11T03:40:01.660Z,60.37
2023-02-11T03:42:35.945Z,60.41
2023-02-11T03:45:12.383Z,60.89
2023-02-11T03:47:45.833Z,60.97
2023-02-11T03:50:16.767Z,60.85
2023-02-11T03:52:45.369Z,61.35
2023-02-11T03:55:18.922Z,60.99
2023-02-11T03:57:46.788Z,61.07
2023-02-11T04:00:14.755Z,61.12
2023-02-11T04:02:42.851Z,60.77
2023-02-11T04:05:15.725Z,60.64
2023-02-11T04:07:42.833Z,59.88
2023-02-11T04:10:11.775Z,60.21
2023-02-11T04:12:38.784Z,60.53
2023-02-11T04:15:06.834Z,60.10
2023-02-11T04:17:33.973Z,60.47
2023-02-11T04:20:01.301Z,60.62
2023-02-11T04:22:28.378Z,61.50
2023-02-11T04:24:55.286Z,61.04
2023-02-11T04:27:22.348Z,61.22
2023-02-11T04:29:49.396Z,61.32
2023-02-11T04:32:16.444Z,61.13
2023-02-11T04:34:43.399Z,61.21
2023-02-11T04:37:10.403Z,60.86
2023-02-11T04:39:37.431Z,60.97
2023-02-11T04:42:04.641Z,60.66
2023-02-11T04:44:31.821Z,60.46
2023-02-11T04:46:59.078Z,60.88
2023-02-11T04:49:25.992Z,60.94
2023-02-11T04:51:52.897Z,60.84
2023-02-11T04:54:19.759Z,60.91
2023-02-11T04:56:46.851Z,61.00
2023-02-11T04:59:13.810Z,61.23
2023-02-11T05:01:41.131Z,60.29
2023-02-11T05:04:08.176Z,61.09
2023-02-11T05:06:35.259Z,60.96
2023-02-11T05:09:02.151Z,60.64
2023-02-11T05:11:29.217Z,60.94
2023-02-11T05:13:56.177Z,60.59
2023-02-11T05:16:23.755Z,60.41
2023-02-11T05:18:52.564Z,60.06
2023-02-11T05:21:19.982Z,60.66
2023-02-11T05:23:47.731Z,59.91
2023-02-11T05:26:15.409Z,59.96
2023-02-11T05:28:42.854Z,59.91
2023-02-11T05:31:10.409Z,58.80
2023-02-11T05:33:37.902Z,59.31
2023-02-11T05:36:08.172Z,58.53
2023-02-11T05:38:35.900Z,56.95
2023-02-11T05:41:03.742Z,56.47
2023-02-11T05:43:30.758Z,57.03
2023-02-11T05:45:57.738Z,57.00
2023-02-11T05:48:27.054Z,57.43
2023-02-11T05:50:55.163Z,56.58
2023-02-11T05:53:22.358Z,56.58
2023-02-11T05:55:49.590Z,56.76
2023-02-11T05:58:16.719Z,56.29
2023-02-11T06:00:43.616Z,55.56
2023-02-11T06:03:10.536Z,55.76
2023-02-11T06:05:37.885Z,55.43
2023-02-11T06:08:05.010Z,55.48
2023-02-11T06:10:31.969Z,55.86
2023-02-11T06:12:58.864Z,54.46
2023-02-11T06:15:25.873Z,54.26
2023-02-11T06:17:52.771Z,53.84
2023-02-11T06:20:19.954Z,53.39
2023-02-11T06:22:47.426Z,53.49
2023-02-11T06:25:14.980Z,52.58
2023-02-11T06:27:41.913Z,53.35
2023-02-11T06:30:09.690Z,52.78
2023-02-11T06:32:44.321Z,52.42
2023-02-11T06:35:13.135Z,51.57
2023-02-11T06:37:41.375Z,52.29
2023-02-11T06:40:09.098Z,51.52
2023-02-11T06:42:36.036Z,51.05
2023-02-11T06:45:03.932Z,50.30
2023-02-11T06:47:31.080Z,50.35
2023-02-11T06:49:58.281Z,50.80
2023-02-11T06:52:25.195Z,50.70
2023-02-11T06:54:52.191Z,49.96
2023-02-11T06:57:19.093Z,50.19
2023-02-11T06:59:46.105Z,49.54
2023-02-11T07:02:13.115Z,48.80
2023-02-11T07:04:40.191Z,48.56
2023-02-11T07:07:07.573Z,48.26
2023-02-11T07:09:34.538Z,47.58
2023-02-11T07:12:01.542Z,48.11
2023-02-11T07:14:28.534Z,47.95
2023-02-11T07:16:55.514Z,47.98
2023-02-11T07:19:22.724Z,48.00
2023-02-11T07:21:49.677Z,47.57
2023-02-11T07:24:16.708Z,47.69
2023-02-11T07:26:43.600Z,48.06
2023-02-11T07:29:10.594Z,48.81
2023-02-11T07:31:37.599Z,48.79
2023-02-11T07:34:04.706Z,48.93
2023-02-11T07:36:32.461Z,48.58
2023-02-11T07:38:59.741Z,48.73
2023-02-11T07:41:27.216Z,48.21
2023-02-11T07:43:54.548Z,47.73
2023-02-11T07:46:24.508Z,48.10
2023-02-11T07:48:52.101Z,47.46
2023-02-11T07:51:27.833Z,47.16
2023-02-11T07:53:57.255Z,46.60
2023-02-11T07:56:24.870Z,46.59
2023-02-11T07:58:51.908Z,46.11
2023-02-11T08:01:24.016Z,46.86
2023-02-11T08:03:52.076Z,46.16
2023-02-11T08:06:20.942Z,46.15
2023-02-11T08:08:48.655Z,45.89
2023-02-11T08:11:23.820Z,45.65
2023-02-11T08:13:52.093Z,45.98
2023-02-11T08:16:23.346Z,45.90
2023-02-11T08:18:51.469Z,45.29
2023-02-11T08:21:19.014Z,44.87
2023-02-11T08:23:46.908Z,44.79
2023-02-11T08:26:18.371Z,44.70
2023-02-11T08:28:46.941Z,45.50
2023-02-11T08:31:18.213Z,45.23
2023-02-11T08:33:45.794Z,45.19
2023-02-11T08:36:15.756Z,45.24
2023-02-11T08:38:43.188Z,44.63
2023-02-11T08:41:10.981Z,44.63
2023-02-11T08:43:38.288Z,44.81
2023-02-11T08:46:05.382Z,44.95
2023-02-11T08:48:32.338Z,44.64
2023-02-11T08:50:59.501Z,44.97
2023-02-11T08:53:27.086Z,45.00
2023-02-11T08:55:55.569Z,45.13
2023-02-11T08:58:22.791Z,45.44
2023-02-11T09:00:50.279Z,45.47
2023-02-11T09:03:17.792Z,45.60
2023-02-11T09:05:47.442Z,45.56
2023-02-11T09:08:14.766Z,45.39
2023-02-11T09:10:42.250Z,44.40
2023-02-11T09:13:09.828Z,44.83
2023-02-11T09:15:36.924Z,44.39
2023-02-11T09:18:05.800Z,44.67
2023-02-11T09:20:32.803Z,45.68
2023-02-11T09:23:00.006Z,44.98
2023-02-11T09:25:27.632Z,44.86
2023-02-11T09:27:54.866Z,44.90
2023-02-11T09:30:21.865Z,45.76
2023-02-11T09:32:48.867Z,46.65
2023-02-11T09:35:15.913Z,46.07
2023-02-11T09:37:42.854Z,46.14
2023-02-11T09:40:10.479Z,45.85
2023-02-11T09:42:44.221Z,46.15
2023-02-11T09:45:19.044Z,45.66
2023-02-11T09:47:51.068Z,45.87
2023-02-11T09:50:42.718Z,45.97
2023-02-11T09:53:23.711Z,44.98
2023-02-11T09:55:59.928Z,45.05
2023-02-11T09:58:35.685Z,46.62
2023-02-11T10:01:05.399Z,45.87
2023-02-11T10:03:56.595Z,47.20
2023-02-11T10:06:53.212Z,47.09
2023-02-11T10:09:50.742Z,47.88
2023-02-11T10:12:39.165Z,47.71
2023-02-11T10:15:33.498Z,47.47
2023-02-11T10:18:06.491Z,48.04
2023-02-11T10:20:49.491Z,48.25
2023-02-11T10:23:24.900Z,48.79
2023-02-11T10:25:54.952Z,48.45
2023-02-11T10:28:24.261Z,48.08
2023-02-11T10:30:51.931Z,48.50
2023-02-11T10:33:47.903Z,48.41
2023-02-11T10:36:17.264Z,48.25
2023-02-11T10:38:44.888Z,48.03
2023-02-11T10:41:21.544Z,48.01
2023-02-11T10:43:49.706Z,48.07
2023-02-11T10:46:24.552Z,47.59
2023-02-11T10:48:53.015Z,46.46
2023-02-11T10:51:26.131Z,46.38
2023-02-11T10:54:17.048Z,46.55
2023-02-11T10:56:48.621Z,46.32
2023-02-11T10:59:30.918Z,46.58
2023-02-11T11:02:01.353Z,47.38
2023-02-11T11:04:31.282Z,47.73
2023-02-11T11:07:23.599Z,47.83
2023-02-11T11:10:16.556Z,48.14
2023-02-11T11:12:46.633Z,49.04
2023-02-11T11:15:23.205Z,48.65
2023-02-11T11:17:51.828Z,48.80
2023-02-11T11:20:30.846Z,49.10
2023-02-11T11:23:22.089Z,49.20
2023-02-11T11:26:10.403Z,48.82
2023-02-11T11:28:41.392Z,49.05
2023-02-11T11:31:23.987Z,49.53
2023-02-11T11:33:55.678Z,49.28
2023-02-11T11:36:35.668Z,50.02
2023-02-11T11:39:16.905Z,50.67
2023-02-11T11:41:57.084Z,50.76
2023-02-11T11:44:28.248Z,50.79
2023-02-11T11:47:14.889Z,50.78
2023-02-11T11:49:45.596Z,50.78
2023-02-11T11:52:18.352Z,49.94
2023-02-11T11:54:52.111Z,51.07
2023-02-11T11:57:25.823Z,50.88
2023-02-11T11:59:53.160Z,51.06
2023-02-11T12:02:50.470Z,50.77
2023-02-11T12:05:27.982Z,51.37
2023-02-11T12:07:54.847Z,51.01
2023-02-11T12:10:28.416Z,51.05
2023-02-11T12:13:20.081Z,51.36
2023-02-11T12:16:08.251Z,52.38
2023-02-11T12:18:47.697Z,52.23
2023-02-11T12:21:36.080Z,51.24
2023-02-11T12:24:21.571Z,51.27
2023-02-11T12:27:22.446Z,51.77
2023-02-11T12:30:08.241Z,52.10
2023-02-11T12:32:47.463Z,51.74
2023-02-11T12:35:58.750Z,52.52
2023-02-11T12:38:48.604Z,52.59
2023-02-11T12:41:50.423Z,53.10
2023-02-11T12:44:54.373Z,53.74
2023-02-11T12:47:33.745Z,53.87
2023-02-11T12:50:16.095Z,53.52
2023-02-11T12:53:07.204Z,54.29
2023-02-11T12:55:40.444Z,53.79
2023-02-11T12:58:18.465Z,54.19
2023-02-11T13:00:51.661Z,54.57
2023-02-11T13:03:25.533Z,55.25
2023-02-11T13:06:00.293Z,54.65
2023-02-11T13:08:42.661Z,54.41
2023-02-11T13:11:18.218Z,55.03
2023-02-11T13:13:45.234Z,55.29
2023-02-11T13:16:31.027Z,55.38
2023-02-11T13:19:30.506Z,55.29
2023-02-11T13:22:10.965Z,56.32
2023-02-11T13:24:51.545Z,56.76
2023-02-11T13:27:41.105Z,56.53
2023-02-11T13:30:38.905Z,56.17
2023-02-11T13:33:18.489Z,56.47
2023-02-11T13:35:57.708Z,56.47
2023-02-11T13:38:31.027Z,56.13
2023-02-11T13:41:15.489Z,56.79
2023-02-11T13:43:43.681Z,57.39
2023-02-11T13:46:15.709Z,56.42
2023-02-11T13:48:49.553Z,57.67
2023-02-11T13:51:19.582Z,57.70
2023-02-11T13:53:54.939Z,58.04
2023-02-11T13:56:34.457Z,57.09
2023-02-11T13:59:04.864Z,57.81
2023-02-11T14:01:59.292Z,57.28
2023-02-11T14:04:27.395Z,57.59
2023-02-11T14:07:26.430Z,57.61
2023-02-11T14:09:53.518Z,58.31
2023-02-11T14:12:31.394Z,57.99
2023-02-11T14:15:18.785Z,57.82
2023-02-11T14:17:46.051Z,58.62
2023-02-11T14:20:39.586Z,58.43
2023-02-11T14:23:07.595Z,58.52
2023-02-11T14:25:34.739Z,58.44
2023-02-11T14:28:08.898Z,58.75
2023-02-11T14:31:05.139Z,58.87
2023-02-11T14:33:51.234Z,59.31
2023-02-11T14:36:31.173Z,59.81
2023-02-11T14:39:25.715Z,58.69
2023-02-11T14:41:53.954Z,59.25
2023-02-11T14:44:25.508Z,59.27
2023-02-11T14:46:54.737Z,58.69
2023-02-11T14:49:36.693Z,59.48
2023-02-11T14:52:15.286Z,59.60
2023-02-11T14:54:43.759Z,59.13
2023-02-11T14:57:17.207Z,59.06
2023-02-11T14:59:57.534Z,59.60
2023-02-11T15:02:29.239Z,59.58
2023-02-11T15:05:33.910Z,59.36
2023-02-11T15:08:04.816Z,59.46
2023-02-11T15:10:58.795Z,60.07
2023-02-11T15:13:29.207Z,59.50
2023-02-11T15:16:06.345Z,59.77
2023-02-11T15:18:44.994Z,59.98
2023-02-11T15:21:12.173Z,59.45
2023-02-11T15:23:39.166Z,59.11
2023-02-11T15:26:21.470Z,59.30
2023-02-11T15:28:48.600Z,59.15
2023-02-11T15:31:17.902Z,58.79
2023-02-11T15:33:45.640Z,59.03
2023-02-11T15:36:14.959Z,58.22
2023-02-11T15:38:42.595Z,57.74
2023-02-11T15:41:36.531Z,58.07
2023-02-11T15:44:03.644Z,57.78
2023-02-11T15:46:38.682Z,58.12
2023-02-11T15:49:06.209Z,58.54
2023-02-11T15:51:39.478Z,58.16
2023-02-11T15:54:18.103Z,58.02
2023-02-11T15:56:49.027Z,57.39
2023-02-11T15:59:28.927Z,58.18
2023-02-11T16:01:57.353Z,57.76
2023-02-11T16:04:28.254Z,57.82
2023-02-11T16:06:57.472Z,58.25
2023-02-11T16:09:30.821Z,58.62
2023-02-11T16:12:02.059Z,59.02
2023-02-11T16:14:29.149Z,58.99
2023-02-11T16:16:56.062Z,59.01
2023-02-11T16:19:26.215Z,58.98
2023-02-11T16:21:58.183Z,59.09
2023-02-11T16:24:34.581Z,60.02
2023-02-11T16:27:04.223Z,59.01
2023-02-11T16:29:34.540Z,59.34
2023-02-11T16:32:18.147Z,60.12
2023-02-11T16:34:45.761Z,59.62
2023-02-11T16:37:12.837Z,59.11
2023-02-11T16:39:40.367Z,59.62
2023-02-11T16:42:07.687Z,60.55
2023-02-11T16:44:35.378Z,59.78
2023-02-11T16:47:05.151Z,59.72
2023-02-11T16:49:38.184Z,60.12
2023-02-11T16:52:16.081Z,60.33
2023-02-11T16:54:43.318Z,60.08
2023-02-11T16:57:36.676Z,60.63
2023-02-11T17:00:07.151Z,60.40
2023-02-11T17:02:37.516Z,59.97
2023-02-11T17:05:07.219Z,60.48
2023-02-11T17:07:35.403Z,60.77
2023-02-11T17:10:03.583Z,61.38
2023-02-11T17:12:30.682Z,61.41
2023-02-11T17:14:58.191Z,61.26
2023-02-11T17:17:25.299Z,60.97
2023-02-11T17:19:52.231Z,61.28
2023-02-11T17:22:19.133Z,61.93
2023-02-11T17:24:46.097Z,60.94
2023-02-11T17:27:13.835Z,60.99
2023-02-11T17:29:41.040Z,61.19
2023-02-11T17:32:08.009Z,61.01
2023-02-11T17:34:35.031Z,61.36
2023-02-11T17:37:01.978Z,61.05
2023-02-11T17:39:28.948Z,61.00
2023-02-11T17:41:56.007Z,61.51
2023-02-11T17:44:22.934Z,61.66
2023-02-11T17:46:49.921Z,61.13
2023-02-11T17:49:17.937Z,61.39
2023-02-11T17:51:44.852Z,61.55
2023-02-11T17:54:17.413Z,61.42
2023-02-11T17:56:46.237Z,61.76
2023-02-11T17:59:14.507Z,61.26
2023-02-11T18:01:42.674Z,61.62
2023-02-11T18:04:14.159Z,61.64
2023-02-11T18:06:41.238Z,61.33
2023-02-11T18:09:08.434Z,61.78
2023-02-11T18:11:37.476Z,61.49
2023-02-11T18:14:06.219Z,62.02
2023-02-11T18:16:34.500Z,61.64
2023-02-11T18:19:04.200Z,62.10
2023-02-11T18:21:31.111Z,61.98
2023-02-11T18:23:59.156Z,61.96
2023-02-11T18:26:28.327Z,61.60
2023-02-11T18:28:57.665Z,63.11
2023-02-11T18:31:25.673Z,62.06
2023-02-11T18:33:52.883Z,62.08
2023-02-11T18:36:21.095Z,62.15
2023-02-11T18:38:48.286Z,62.08
2023-02-11T18:41:15.726Z,62.63
2023-02-11T18:43:42.991Z,63.09
2023-02-11T18:46:12.636Z,62.97
2023-02-11T18:48:40.267Z,63.22
2023-02-11T18:51:16.325Z,63.00
2023-02-11T18:53:43.555Z,62.44
2023-02-11T18:56:14.599Z,62.98
2023-02-11T18:58:41.897Z,62.33
2023-02-11T19:01:22.740Z,62.33
2023-02-11T19:03:50.598Z,62.63
2023-02-11T19:06:21.017Z,63.00
2023-02-11T19:08:48.442Z,62.87
2023-02-11T19:11:16.114Z,61.92
2023-02-11T19:13:43.099Z,63.00
2023-02-11T19:16:11.651Z,62.26
2023-02-11T19:18:38.901Z,63.38
2023-02-11T19:21:10.444Z,62.73
2023-02-11T19:23:37.582Z,62.00
2023-02-11T19:26:04.826Z,62.49
2023-02-11T19:28:32.993Z,61.61
2023-02-11T19:31:08.867Z,62.50
2023-02-11T19:33:35.997Z,62.20
2023-02-11T19:36:05.655Z,62.75
2023-02-11T19:38:32.678Z,61.96
2023-02-11T19:41:00.086Z,62.68
2023-02-11T19:43:27.455Z,62.28
2023-02-11T19:45:54.721Z,62.87
2023-02-11T19:48:22.749Z,62.14
2023-02-11T19:50:49.683Z,62.64
2023-02-11T19:53:19.255Z,61.84
2023-02-11T19:55:46.579Z,61.66
2023-02-11T19:58:16.006Z,62.23
2023-02-11T20:00:43.767Z,62.42
2023-02-11T20:03:10.660Z,62.06
2023-02-11T20:05:40.197Z,61.54
2023-02-11T20:08:07.155Z,61.97
2023-02-11T20:10:35.092Z,61.99
2023-02-11T20:13:02.013Z,62.19
2023-02-11T20:15:29.041Z,62.35
2023-02-11T20:17:56.006Z,61.31
2023-02-11T20:20:22.988Z,61.61
2023-02-11T20:23:15.512Z,61.69
2023-02-11T20:25:42.571Z,61.77
2023-02-11T20:28:09.490Z,61.16
2023-02-11T20:30:36.500Z,62.54
2023-02-11T20:33:03.456Z,62.12
2023-02-11T20:35:30.517Z,62.15
2023-02-11T20:37:57.968Z,61.03
2023-02-11T20:40:24.921Z,61.91
2023-02-11T20:42:51.851Z,61.73
2023-02-11T20:45:18.935Z,61.54
2023-02-11T20:47:45.784Z,61.99
2023-02-11T20:50:12.745Z,61.97
2023-02-11T20:52:39.795Z,61.65
2023-02-11T20:55:06.888Z,62.47
2023-02-11T20:57:33.813Z,61.36
2023-02-11T21:00:00.823Z,62.13
2023-02-11T21:02:27.690Z,62.14
2023-02-11T21:04:54.710Z,61.95
2023-02-11T21:07:21.652Z,61.70
2023-02-11T21:09:48.642Z,62.28
2023-02-11T21:12:15.555Z,62.38
2023-02-11T21:14:42.617Z,62.25
2023-02-11T21:17:09.472Z,62.03
2023-02-11T21:19:36.407Z,62.05
2023-02-11T21:22:03.351Z,62.41
2023-02-11T21:24:30.505Z,61.93
2023-02-11T21:26:57.412Z,61.89
2023-02-11T21:29:24.638Z,62.13
2023-02-11T21:31:51.663Z,61.06
2023-02-11T21:34:20.036Z,61.33
2023-02-11T21:36:47.147Z,61.82
2023-02-11T21:39:14.596Z,61.41
2023-02-11T21:41:41.518Z,61.52
2023-02-11T21:44:08.639Z,61.68
2023-02-11T21:46:35.575Z,60.51
2023-02-11T21:49:02.782Z,61.50
2023-02-11T21:51:29.740Z,61.03
2023-02-11T21:54:01.661Z,62.26
2023-02-11T21:56:30.986Z,61.37
2023-02-11T21:58:59.045Z,61.79
2023-02-11T22:01:31.726Z,60.91
2023-02-11T22:03:59.398Z,60.53
2023-02-11T22:06:29.659Z,61.26
2023-02-11T22:08:57.355Z,61.93
2023-02-11T22:11:24.358Z,60.74
2023-02-11T22:13:56.014Z,61.11
2023-02-11T22:16:23.816Z,61.25
2023-02-11T22:18:51.041Z,61.45
2023-02-11T22:21:20.839Z,61.03
2023-02-11T22:23:48.051Z,61.68
2023-02-11T22:26:18.041Z,62.19
2023-02-11T22:28:45.529Z,61.92
2023-02-11T22:31:22.021Z,62.28
2023-02-11T22:33:49.350Z,61.99
2023-02-11T22:36:22.351Z,62.15
2023-02-11T22:38:49.981Z,61.52
2023-02-11T22:41:17.386Z,61.90
2023-02-11T22:43:44.843Z,61.59
2023-02-11T22:46:14.610Z,62.19
2023-02-11T22:48:42.121Z,61.96
2023-02-11T22:51:14.749Z,62.52
2023-02-11T22:53:42.387Z,62.49
2023-02-11T22:56:15.194Z,61.77
2023-02-11T22:58:43.308Z,62.13
2023-02-11T23:01:10.816Z,61.99
2023-02-11T23:03:37.852Z,62.02
2023-02-11T23:06:05.391Z,62.52
2023-02-11T23:08:33.047Z,62.68
2023-02-11T23:11:09.337Z,61.14
2023-02-11T23:13:38.976Z,62.06
2023-02-11T23:16:08.240Z,61.80
2023-02-11T23:18:36.332Z,61.84
2023-02-11T23:21:12.112Z,61.76
2023-02-11T23:23:39.961Z,61.28
2023-02-11T23:26:10.587Z,61.87
2023-02-11T23:28:38.172Z,61.48
2023-02-11T23:31:21.094Z,61.29
2023-02-11T23:33:48.922Z,61.32
2023-02-11T23:36:17.553Z,61.60
2023-02-11T23:38:44.861Z,61.66
2023-02-11T23:41:12.680Z,61.16
2023-02-11T23:43:39.680Z,62.45
2023-02-11T23:46:07.919Z,61.54
2023-02-11T23:48:35.425Z,61.41
2023-02-11T23:51:03.301Z,61.82
2023-02-11T23:53:30.305Z,61.94
2023-02-11T23:55:57.279Z,62.28
2023-02-11T23:58:24.743Z,61.93
